FAT weather

Fresno Yosemite International Airport
Fresno, California, United States

Public forecast

Using degrees Fahrenheit for public forecast. Weather courtesy of forecast.io.

Current aviation weather report (METAR) for Fresno Yosemite International Airport

Retrieved 2019/12/08 20:42 UTC (7 minutes ago):

KFAT 082042Z 35012KT 2SM R29R/4500VP6000FT -TSRA BR FEW012 BKN019 OVC027CB 13/12 A3001

Aviation forecast (TAF) for Fresno Yosemite International Airport

Retrieved 2019/12/08 18:45 UTC (2 hours ago):

TAF KFAT 081742Z 0818/0918 13008KT P6SM SCT030 BKN050 FM082000 32005KT 4SM -SHRA BR BKN050 OVC100 FM090200 32005KT P6SM FEW200 FM091400 VRB03KT 4SM BR SCT030